KRUTKORC

Guest
Details From KRUT - Rutland State
To KORC - Orange City Muni
Flight Number -
Tags Routegen
Created
Modified
Stats Distance 1,048 nm / 1,941 km
Max Altitude 0 ft / 0 m
Waypoints 8
Social Downloads 1
Likes 0
Share VATSIM

Download

Looking for another format? Having issues loading an existing format? Contact us
Advertisement - Login to hide

Notes

None

Route

KRUT +43.38_-072.94 +43.38_-073.15 ADVIV 10030 17337 +42.57_-095.91 KORC

ID Type Via Altitude (ft/m) Position (lat/lon) Dist (leg/tot) Name
O KRUT APT - 0 / 0 43.52488 / -72.94948 - / 0 nm
+43.38_-072.94 DME - 0 / 0 43.38020 / -72.94428 8 / 8 nm
+43.38_-073.15 DME - 0 / 0 43.37624 / -73.14595 8 / 17 nm
ADVIV FIX - 0 / 0 44.17113 / -77.40850 190 / 208 nm
10030 FIX - 0 / 0 44.22183 / -82.25200 208 / 416 nm
17337 FIX - 0 / 0 43.56753 / -86.39560 183 / 600 nm
+42.57_-095.91 DME - 0 / 0 42.56549 / -95.90636 421 / 1021 nm
O KORC APT - 0 / 0 42.98464 / -96.06071 26 / 1047 nm

Altitude Profile

Advertisement - Login to hide

Weather


0- 5 10 15 20 25 30 35+ Temperature / °C

Clouds and Precipitation
Forecast for 2018-10-19 00:00 UTC. Updated 5 hours ago

Ground ~20,000 ft ~40,000 ft Winds

KRUT

Details ICAO KRUT (RUT)
Name RUTLAND STATE
Region United States
Timezone America/New_York (UTC-4.0)
Stats Elevation 787 ft / 240 m (AMSL)
Location 43.529400° -72.949600°
Runways 2
Magnetic Variation 14.088° W

METAR

KRUT 190156Z AUTO 29005KT 10SM SCT070 02/M08 A3026 RMK AO2 SLP268 T00221083 FZRANO $

Decode

TAF

KRUT 182325Z 1900/1924 27006KT P6SM SKC FM190400 16004KT P6SM BKN130 FM191400 22008KT P6SM SCT130

Decode

Departure Runways

ID Width Length Bearing (true/mag) Surface Threshold Overrun Markings Lighting
01 98 ft / 30 m 5,008 ft / 1,526 m 358.50° / 12.59° ASPHALT 0 ft / 0 m 0 ft / 0 m APP EDGE THRESHOLD
13 75 ft / 23 m 3,172 ft / 967 m 118.72° / 132.81° ASPHALT 0 ft / 0 m 0 ft / 0 m APP EDGE THRESHOLD REIL-OMNI
19 98 ft / 30 m 5,008 ft / 1,526 m 178.50° / 192.59° ASPHALT 0 ft / 0 m 0 ft / 0 m APP EDGE THRESHOLD MALSR REIL-UNI
31 75 ft / 23 m 3,172 ft / 967 m 298.72° / 312.81° ASPHALT 0 ft / 0 m 0 ft / 0 m APP EDGE THRESHOLD

KORC

Details ICAO KORC
Name ORANGE CITY MUNI
Region United States
Timezone America/Chicago (UTC-5.0)
Stats Elevation 1,414 ft / 431 m (AMSL)
Location 42.990300° -96.062800°
Runways 1
Magnetic Variation 2.495° E

METAR

KORC 190215Z AUTO 20010KT 10SM SCT110 15/06 A3013 RMK AO2

Decode

TAF

Not found

Destination Runways

ID Width Length Bearing (true/mag) Surface Threshold Overrun Markings Lighting
16 60 ft / 18 m 4,254 ft / 1,297 m 164.82° / 162.33° CONCRETE 0 ft / 0 m 0 ft / 0 m APP EDGE THRESHOLD REIL-OMNI
34 60 ft / 18 m 4,254 ft / 1,297 m 344.82° / 342.33° CONCRETE 0 ft / 0 m 0 ft / 0 m APP EDGE THRESHOLD REIL-OMNI